CTSO2: Bird Creek At Catoosa

Data processed at Sun Sep 23 2018 22:02


All information presented herein is the property of the government of the United States of America and may be revised or deleted at any time without prior notice.
Dissemination of this information without the expressed written consent of the Public Affairs Office, Tulsa District U.S. Army Corps of Engineers is strictly prohibited.
These data are gathered electronically and, as presented, have not undergone any form of quality control. These data are not guaranteed to be valid or correct.
Go to home page.
Go to station list.
Go to home page.

Upstream stations:

Downstream station:
Previous Day
Next Day
Current Day
    
SHEF ID:       CTSO2     Bird Ck at State Highway 266 nea
STATION TYPE:  

                STAGE  STAGE(2)  RIV-FLOW  WTR-TEMP   DIS-OXY        PH   CONDUCT  BAT-LOAD
                   ft        ft       cfs         F      mg/l        su   umho/cm      volt
              Ccp-Rev   Ccp-Rev   Ccp-Rev   Ccp-Rev   Ccp-Rev   Ccp-Rev   Ccp-Rev   Ccp-Rev
(US/Central)
09/23 00:00      5.00      4.78       417     73.18      6.80      7.60       253     12.65
09/23 01:00      4.91      4.75       382     73.09      6.79      7.60       280     12.65
09/23 02:00      4.90      4.72       378     72.99      6.73      7.60       293     12.65
09/23 03:00      4.88      4.68       371     72.86      6.75      7.60       274     12.65
09/23 04:00      4.83      4.66       352     72.73      6.67      7.59       255     12.57
09/23 05:00      4.77      4.64       331     72.61      6.64      7.59       235     12.57
09/23 06:00      4.78      4.62       334     72.48      6.61      7.58       225     12.57
09/23 07:00      4.74      4.60       320     72.39      6.60      7.58       259     12.57
09/23 08:00      4.68      4.58       300     72.34      6.55      7.58       278     12.57
09/23 09:00      4.67      4.55       297     72.34      6.55      7.57       282     12.57
09/23 10:00      4.65      4.56       290     72.37      6.56      7.58       281     12.97
09/23 11:00      4.65      4.54       290     72.43      6.66      7.59       285     13.05
09/23 12:00      4.67      4.55       297     72.54      6.72      7.60       304     13.21
09/23 13:00      4.69      4.54       303     72.61      6.78      7.60       308     13.37
09/23 14:00      4.66      4.54       293     72.68      6.79      7.61       302     13.13
09/23 15:00      4.66      4.52       293     72.73      6.85      7.62       271     13.05
09/23 16:00      4.62      4.53       280     72.79      6.89      7.62       273     12.89
09/23 17:00      4.62      4.49       280     72.82      6.90      7.63       289     12.89
09/23 18:00      4.61      4.50       277     72.86      6.93      7.63       283     12.81
09/23 19:00      4.59      4.49       271     72.90      6.93      7.63       293     12.73
09/23 20:00      4.57      4.48       264     72.95      6.96      7.64       288     12.65
09/23 21:00      4.63      4.47       283     72.97      6.95      7.64       292     12.65
09/23 22:00      ----      ----      ----      ----      ----      ----      ----      ----
09/23 23:00      ----      ----      ----      ----      ----      ----      ----      ----